旭川空港の過去48時間の天気

旭川空港 (Asahikawa (Civil))

現在時刻: 9/19 07:26 JST (9/18 22:26 UTC) 以下の時間は現地時間です。

過去48時間のMETAR気象情報
時間 風向 風速(m/s) 視程 気温(℃) 湿度(%) 気圧(hPa) 天気現象
19 07:04 静穏 0 300m 11 100 1014
19 07:00 不定 1 300m 11 100 1014
19 06:40 静穏 0 200m 11 100 1013
RJEC 182204Z 00000KT 0300 R34/0400V0800U FG VV002 11/11 Q1014 RMK A2994
RJEC 182200Z VRB01KT 0300 R34/0300V0450N FG VV002 11/11 Q1014
RJEC 182140Z 00000KT 0200 R34/0225N FG VV002 11/11 Q1013 RMK A2994